Weather observations for the past three days for
Sedona Airport
Imperial (Metric)
Date Time (mst) Wind (mph) Vis. (mi.) Weather Sky Cond. Temperature (ºF) Relative Humidity Wind Chill (°F) Heat Index (°F) Pressure Precipitation (in)
Air Dwpt 6 hour altimeter (in) sea level (mb) 1 hr 3 hr 6 hr
Max. Min.
08 18:15 W 10 10.00 Fair CLR 82.4 23 11% 80 29.95 0.0
08 17:55 S 12 10.00 Fair CLR 82.4 23 11% 80 29.95 0.0
08 17:35 S 10 10.00 Fair CLR 82.4 23 11% 80 29.95 0.0
08 17:15 S 8 G 18 10.00 Fair CLR 84.2 23 10% 81 29.95 0.0
08 16:55 SW 8 G 17 10.00 Fair CLR 86 23 10% 83 29.95 0.0
08 16:35 S 13 G 20 10.00 Fair CLR 86 23 10% 83 29.95 0.0
08 16:15 S 8 G 18 10.00 Fair CLR 87.8 21.2 9% 84 29.95 0.0
08 15:55 S 14 G 25 10.00 Fair CLR 89.6 21.2 8% 86 29.95 0.0
08 15:35 SW 16 G 25 10.00 Fair CLR 87.8 19.4 8% 84 29.95 0.0
08 15:15 W 13 G 22 10.00 Fair CLR 89.6 17.6 7% 86 29.96 0.0
08 14:55 W 14 G 22 10.00 Fair CLR 87.8 17.6 7% 84 29.97 0.0
08 14:35 SW 14 G 21 10.00 Fair CLR 91.4 17.6 7% 87 29.98 0.0
08 14:15 SW 16 G 26 10.00 Fair CLR 89.6 17.6 7% 86 29.99 0.0
08 13:55 S 13 G 20 10.00 Fair CLR 87.8 19.4 8% 84 29.99 0.0
08 13:35 Vrbl 5 G 13 10.00 Fair CLR 89.6 19.4 7% 86 30.01 0.0
08 13:15 SW 8 G 18 10.00 Fair CLR 89.6 19.4 7% 86 30.01 0.0
08 12:55 SW 14 G 22 10.00 Fair CLR 86 19.4 8% 83 30.02 0.0
08 12:35 SW 10 G 20 10.00 Fair CLR 86 21.2 9% 83 30.03 0.0
08 12:15 Vrbl 7 10.00 Fair CLR 86 21.2 9% 83 30.04 0.0
08 11:55 Vrbl 3 G 13 10.00 Fair CLR 82.4 19.4 9% 80 30.05 0.0
08 11:35 Vrbl 5 G 13 10.00 Fair CLR 82.4 21.2 10% 80 30.05 0.0
08 11:15 S 8 G 20 10.00 Fair CLR 80.6 21.2 11% 79 30.06 0.0
08 10:55 SW 7 10.00 Fair CLR 80.6 21.2 11% 79 30.07 0.0
08 10:35 Vrbl 5 10.00 Fair CLR 80.6 23 12% 79 30.07 0.0
08 10:15 S 8 10.00 Fair CLR 77 19.4 11% 76 30.08 0.0
08 09:55 Vrbl 5 10.00 Fair CLR 77 21.2 12% 76 30.08 0.0
08 09:35 Vrbl 5 10.00 Fair CLR 73.4 21.2 14% 30.08 0.0
08 09:15 Vrbl 6 10.00 Fair CLR 75.2 21.2 13% 75 30.08 0.0
08 08:55 Vrbl 6 10.00 Fair CLR 73.4 23 15% 30.09 0.0
08 08:35 Calm 10.00 Fair CLR 69.8 23 17% 30.09 0.0
08 08:15 Vrbl 5 10.00 Fair CLR 69.8 23 17% 30.09 0.0
08 07:55 Vrbl 6 G 12 10.00 Fair CLR 68 23 18% 30.09 0.0
08 07:35 Vrbl 3 10.00 Fair CLR 66.2 21.2 18% 30.09 0.0
08 07:15 NE 7 10.00 Fair CLR 64.4 21.2 19% 30.08 0.0
08 06:55 NE 9 10.00 Fair CLR 62.6 19.4 19% 30.08 0.0
08 06:35 NE 13 10.00 Fair CLR 59 19.4 21% 30.07 0.0
08 06:15 NE 10 10.00 Fair CLR 59 19.4 21% 30.07 0.0
08 05:55 NE 13 10.00 Fair CLR 59 19.4 21% 30.06 0.0
08 05:35 NE 13 10.00 Fair CLR 57.2 19.4 23% 30.06 0.0
08 05:15 NE 12 10.00 Fair CLR 57.2 19.4 23% 30.06 0.0
08 04:55 NE 10 G 16 10.00 Fair CLR 59 19.4 21% 30.06 0.0
08 04:35 NE 14 10.00 Fair CLR 57.2 19.4 23% 30.05 0.0
08 04:15 NE 16 10.00 Fair CLR 57.2 19.4 23% 30.05 0.0
08 03:55 NE 14 10.00 Fair CLR 59 17.6 20% 30.04 0.0
08 03:35 NE 14 10.00 Fair CLR 57.2 17.6 21% 30.04 0.0
08 03:15 N 14 10.00 Fair CLR 59 17.6 20% 30.04 0.0
08 02:55 NE 14 10.00 Fair CLR 59 17.6 20% 30.04 0.0
08 02:35 NE 13 10.00 Fair CLR 60.8 15.8 17% 30.04 0.0
08 02:15 NE 13 10.00 Fair CLR 60.8 15.8 17% 30.04 0.0
08 01:55 NE 15 10.00 Fair CLR 60.8 15.8 17% 30.04 0.0
08 01:35 NE 12 10.00 Fair CLR 60.8 15.8 17% 30.05 0.0
08 01:15 NE 13 10.00 Fair CLR 60.8 14 16% 30.05 0.0
08 00:55 N 13 10.00 Fair CLR 60.8 14 16% 30.05 0.0
08 00:35 NE 9 10.00 Fair CLR 62.6 12.2 14% 30.06 0.0
08 00:15 NE 10 10.00 Fair CLR 62.6 10.4 13% 30.05 0.0
07 23:55 NE 12 10.00 Fair CLR 64.4 10.4 12% 30.05 0.0
07 23:35 NE 13 10.00 Fair CLR 64.4 10.4 12% 30.06 0.0
07 23:15 NE 9 10.00 Fair CLR 64.4 12.2 13% 30.06 0.0
07 22:55 N 8 10.00 Fair CLR 66.2 8.6 10% 30.06 0.0
07 22:35 Vrbl 7 10.00 Fair CLR 68 8.6 10% 30.06 0.0
07 22:15 NE 7 10.00 Fair CLR 68 8.6 10% 30.06 0.0
07 21:55 NE 8 10.00 Fair CLR 68 8.6 10% 30.05 0.0
07 21:35 NE 9 10.00 Fair CLR 68 10.4 10% 30.05 0.0
07 21:15 NE 15 10.00 Fair CLR 69.8 8.6 9% 30.04 0.0
07 20:55 NE 14 10.00 Fair CLR 71.6 8.6 8% 30.03 0.0
07 20:35 NE 12 10.00 Fair CLR 71.6 8.6 8% 30.02 0.0
07 20:15 NE 12 10.00 Fair CLR 73.4 8.6 8% 30.01 0.0
07 19:55 E 9 10.00 Fair CLR 73.4 8.6 8% 30 0.0
07 19:35 E 7 10.00 Fair CLR 75.2 12.2 9% 75 29.99 0.0
07 19:15 W 6 10.00 Fair CLR 75.2 15.8 10% 75 29.98 0.0
07 18:55 W 7 10.00 Fair CLR 77 15.8 10% 76 29.98 0.0
07 18:35 W 9 10.00 Fair CLR 77 15.8 10% 76 29.97 0.0
07 18:15 W 9 10.00 Fair CLR 80.6 15.8 9% 79 29.97 0.0
07 17:55 Vrbl 5 10.00 Fair CLR 80.6 15.8 9% 79 29.97 0.0
07 17:35 S 6 10.00 Fair CLR 80.6 15.8 9% 79 29.97 0.0
07 17:15 Vrbl 6 G 12 10.00 Fair CLR 82.4 15.8 8% 80 29.97 0.0
07 16:55 Vrbl 7 10.00 Fair CLR 80.6 14 8% 78 29.97 0.0
07 16:35 Calm 10.00 Fair CLR 80.6 12.2 7% 78 29.97 0.0
07 16:15 Calm 10.00 Fair CLR 82.4 10.4 6% 80 29.98 0.0
07 15:55 Vrbl 6 10.00 Fair CLR 84.2 10.4 6% 81 29.98 0.0
07 15:35 Vrbl 5 10.00 Fair CLR 80.6 8.6 6% 78 29.98 0.0
07 15:15 Vrbl 6 10.00 Fair CLR 80.6 8.6 6% 78 29.99 0.0
07 14:55 Vrbl 5 10.00 Fair CLR 78.8 8.6 7% 77 30 0.0
07 14:35 Calm 10.00 Fair CLR 80.6 8.6 6% 78 30.02 0.0
07 14:15 W 6 10.00 Fair CLR 78.8 8.6 7% 77 30.02 0.0
07 13:55 Vrbl 5 G 13 10.00 Fair CLR 80.6 10.4 7% 78 30.03 0.0
07 13:35 W 7 G 16 10.00 Fair CLR 78.8 8.6 7% 77 30.04 0.0
07 13:15 Vrbl 5 G 12 10.00 Fair CLR 82.4 12.2 7% 80 30.05 0.0
07 12:55 N 8 G 17 10.00 Fair CLR 78.8 10.4 7% 77 30.06 0.0
07 12:35 Vrbl 5 G 13 10.00 Fair CLR 80.6 10.4 7% 78 30.06 0.0
07 12:15 Vrbl 5 G 15 10.00 Fair CLR 77 14 9% 76 30.07 0.0
07 11:55 Vrbl 7 G 15 10.00 Fair CLR 80.6 14 8% 78 30.08 0.0
07 11:35 E 13 10.00 Fair CLR 80.6 15.8 9% 79 30.09 0.0
07 11:15 E 10 10.00 Fair CLR 75.2 15.8 10% 75 30.09 0.0
07 10:55 Vrbl 6 G 15 10.00 Fair CLR 78.8 17.6 10% 77 30.1 0.0
07 10:35 Vrbl 7 G 14 10.00 Fair CLR 73.4 17.6 12% 30.11 0.0
07 10:15 N 13 G 18 10.00 Fair CLR 73.4 17.6 12% 30.11 0.0
07 09:55 NE 9 G 15 10.00 Fair CLR 73.4 19.4 13% 30.12 0.0
07 09:35 Vrbl 6 G 13 10.00 Fair CLR 71.6 19.4 14% 30.12 0.0
07 09:15 Vrbl 5 G 13 10.00 Fair CLR 71.6 19.4 14% 30.12 0.0
07 08:55 E 9 G 18 10.00 Fair CLR 69.8 19.4 15% 30.13 0.0
07 08:35 E 10 G 18 10.00 Fair CLR 68 17.6 14% 30.13 0.0
07 08:15 E 9 10.00 Fair CLR 68 19.4 16% 30.14 0.0
07 07:55 Vrbl 6 10.00 Fair CLR 64.4 19.4 18% 30.14 0.0
07 07:35 NE 7 G 14 10.00 Fair CLR 62.6 19.4 19% 30.15 0.0
07 07:15 NE 10 10.00 Fair CLR 60.8 17.6 19% 30.15 0.0
07 06:55 NE 12 10.00 Fair CLR 57.2 17.6 21% 30.14 0.0
07 06:35 NE 10 G 18 10.00 Fair CLR 57.2 17.6 21% 30.14 0.0
07 06:15 NE 13 G 20 10.00 Fair CLR 57.2 17.6 21% 30.14 0.0
07 05:55 NE 13 10.00 Fair CLR 55.4 17.6 23% 30.14 0.0
07 05:35 NE 15 10.00 Fair CLR 55.4 17.6 23% 30.14 0.0
07 05:15 NE 13 10.00 Fair CLR 55.4 17.6 23% 30.14 0.0
07 04:55 NE 14 10.00 Fair CLR 55.4 19.4 24% 30.14 0.0
07 04:35 NE 10 G 16 10.00 Fair CLR 57.2 19.4 23% 30.14 0.0
07 04:15 N 13 10.00 Fair CLR 55.4 19.4 24% 30.14 0.0
07 03:55 N 10 10.00 Fair CLR 55.4 19.4 24% 30.14 0.0
07 03:35 NE 12 G 17 10.00 Fair CLR 55.4 21.2 26% 30.14 0.0
07 03:15 NE 14 10.00 Fair CLR 57.2 23 27% 30.14 0.0
07 02:55 NE 13 10.00 Fair CLR 59 23 25% 30.14 0.0
07 02:35 E 15 10.00 Fair CLR 59 24.8 27% 30.13 0.0
07 02:15 NE 14 G 22 10.00 Fair CLR 57.2 24.8 29% 30.13 0.0
07 01:55 NE 14 10.00 Fair CLR 57.2 26.6 31% 30.13 0.0
07 01:35 NE 14 10.00 Fair CLR 57.2 28.4 33% 30.13 0.0
07 01:15 NE 14 10.00 Fair CLR 55.4 30.2 38% 30.13 0.0
07 00:55 NE 13 10.00 Fair CLR 57.2 30.2 36% 30.13 0.0
07 00:35 NE 13 10.00 Fair CLR 57.2 30.2 36% 30.13 0.0
07 00:15 N 12 10.00 Fair CLR 57.2 30.2 36% 30.13 0.0
06 23:55 NE 12 10.00 Fair CLR 57.2 30.2 36% 30.13 0.0
06 23:35 NE 8 10.00 Fair CLR 57.2 30.2 36% 30.12 0.0
06 23:15 NE 5 10.00 Fair CLR 59 30.2 34% 30.12 0.0
06 22:55 Calm 10.00 Fair CLR 60.8 28.4 29% 30.11 0.0
06 22:35 Vrbl 3 10.00 Fair CLR 60.8 28.4 29% 30.11 0.0
06 22:15 Vrbl 6 10.00 Fair CLR 59 28.4 31% 30.1 0.0
06 21:55 SE 8 10.00 Fair CLR 62.6 28.4 27% 30.1 0.0
06 21:35 SE 6 10.00 Fair CLR 62.6 28.4 27% 30.09 0.0
06 21:15 S 5 10.00 Fair CLR 62.6 28.4 27% 30.08 0.0
06 20:55 SE 9 10.00 A Few Clouds FEW110 64.4 28.4 26% 30.08 0.0
06 20:15 SE 9 10.00 Partly Cloudy SCT120 64.4 28.4 26% 30.06 0.0
06 19:55 S 8 10.00 Partly Cloudy SCT110 66.2 26.6 22% 30.04 0.0
06 19:35 S 8 10.00 Fair CLR 66.2 26.6 22% 30.03 0.0
06 19:15 SW 9 G 16 10.00 Fair CLR 68 26.6 21% 30.02 0.0
06 18:55 SW 8 G 15 10.00 Partly Cloudy SCT120 69.8 26.6 20% 30.01 0.0
06 18:35 SW 9 10.00 Partly Cloudy SCT120 71.6 24.8 17% 30 0.0
06 18:15 SW 6 10.00 A Few Clouds FEW120 73.4 24.8 16% 30 0.0
06 17:55 S 8 10.00 Fair CLR 73.4 24.8 16% 30 0.0
06 17:35 SW 6 10.00 Fair CLR 75.2 24.8 15% 75 29.99 0.0
06 17:15 S 8 G 20 10.00 A Few Clouds FEW110 75.2 24.8 15% 75 29.99 0.0
06 16:55 S 9 G 16 10.00 A Few Clouds FEW110 75.2 26.6 16% 76 29.99 0.0
06 16:35 Vrbl 7 10.00 A Few Clouds FEW110 75.2 26.6 16% 76 29.99 0.0
06 15:55 Vrbl 7 G 18 10.00 Fair CLR 73.4 26.6 17% 30 0.0
06 15:35 SW 10 G 16 10.00 Fair CLR 75.2 26.6 16% 76 30 0.0
06 15:15 Vrbl 7 G 16 10.00 Fair CLR 75.2 26.6 16% 76 30.01 0.0
06 14:35 NW 8 G 21 10.00 Fair CLR 73.4 26.6 17% 30.03 0.0
06 14:15 W 7 G 13 10.00 Fair CLR 71.6 26.6 19% 30.04 0.0
06 13:55 SE 7 G 13 10.00 Fair CLR 71.6 26.6 19% 30.04 0.0
06 13:35 NW 8 G 16 10.00 Fair CLR 69.8 28.4 21% 30.05 0.0
06 13:15 Vrbl 5 10.00 Fair CLR 68 28.4 23% 30.05 0.0
06 12:55 Vrbl 8 G 22 10.00 Fair CLR 71.6 28.4 20% 30.06 0.0
06 12:35 S 10 G 16 10.00 Fair CLR 69.8 28.4 21% 30.06 0.0
06 12:15 Vrbl 3 G 12 10.00 Fair CLR 68 28.4 23% 30.07 0.0
06 11:55 Vrbl 6 G 16 10.00 Fair CLR 68 28.4 23% 30.08 0.0
06 11:35 Vrbl 3 G 15 10.00 Fair CLR 64.4 28.4 26% 30.08 0.0
06 11:15 Vrbl 7 10.00 Fair CLR 68 30.2 24% 30.09 0.0
06 10:55 S 8 G 15 10.00 Fair CLR 66.2 30.2 26% 30.09 0.0
06 10:35 Vrbl 6 10.00 Fair CLR 62.6 28.4 27% 30.09 0.0
06 10:15 Vrbl 5 10.00 Fair CLR 62.6 28.4 27% 30.09 0.0
06 09:55 Calm 10.00 Fair CLR 60.8 28.4 29% 30.09 0.0
06 09:35 Calm 10.00 Fair CLR 62.6 30.2 30% 30.09 0.0
06 09:15 Vrbl 7 10.00 Fair CLR 60.8 32 34% 30.08 0.0
06 08:55 Vrbl 5 10.00 Fair CLR 57.2 30.2 36% 30.09 0.0
06 08:35 Calm 10.00 Fair CLR 55.4 30.2 38% 30.09 0.0
06 08:15 Vrbl 3 10.00 Fair CLR 55.4 30.2 38% 30.08 0.0
06 07:55 Calm 10.00 Fair CLR 53.6 30.2 41% 30.08 0.0
06 07:35 NE 3 10.00 Fair CLR 51.8 30.2 44% 30.07 0.0
06 07:15 NE 7 10.00 Fair CLR 50 30.2 47% 48 30.07 0.0
06 06:55 NE 9 10.00 Fair CLR 48.2 30.2 50% 45 30.07 0.0
06 06:35 NE 10 10.00 Fair CLR 46.4 30.2 53% 42 30.06 0.0
06 06:15 NE 10 10.00 Fair CLR 44.6 30.2 57% 40 30.06 0.0
06 05:55 N 10 10.00 Fair CLR 44.6 30.2 57% 40 30.05 0.0
06 05:35 N 8 10.00 Fair CLR 44.6 30.2 57% 41 30.04 0.0
06 04:55 Calm 10.00 Fair CLR 46.4 30.2 53% 30.03 0.0
06 04:35 NE 5 10.00 Fair CLR 44.6 30.2 57% 43 30.04 0.0
06 04:15 N 6 10.00 Fair CLR 44.6 32 61% 42 30.03 0.0
06 03:55 Calm 10.00 Fair CLR 46.4 30.2 53% 30.03 0.0
06 03:35 Calm 10.00 Fair CLR 46.4 30.2 53% 30.02 0.0
06 03:15 Calm 10.00 Fair CLR 46.4 30.2 53% 30.02 0.0
06 02:55 Calm 10.00 Fair CLR 48.2 30.2 50% 30.02 0.0
06 02:35 Calm 10.00 Fair CLR 46.4 30.2 53% 30.01 0.0
06 02:15 N 6 10.00 Fair CLR 46.4 32 57% 44 30.01 0.0
06 01:55 NE 7 10.00 Fair CLR 46.4 32 57% 43 30.01 0.0
06 01:35 N 9 10.00 Fair CLR 46.4 32 57% 42 30.01 0.0
06 01:15 Vrbl 5 10.00 Fair CLR 48.2 32 54% 47 30.01 0.0
06 00:55 N 3 10.00 Fair CLR 48.2 32 54% 30.01 0.0
06 00:35 Calm 10.00 Fair CLR 48.2 33.8 58% 30.01 0.0
06 00:15 NE 5 10.00 Fair CLR 48.2 33.8 58% 47 30 0.0
05 23:55 NE 3 10.00 Fair CLR 48.2 32 54% 30 0.0
05 23:35 N 5 10.00 A Few Clouds FEW070 50 33.8 54% 49 30 0.0
05 23:15 NE 8 10.00 Mostly Cloudy BKN070 48.2 37.4 66% 45 30 0.0
05 22:55 N 8 10.00 Partly Cloudy SCT070 48.2 37.4 66% 45 29.99 0.0
05 22:35 NE 10 10.00 A Few Clouds FEW070 48.2 37.4 66% 44 29.99 0.0
05 22:15 NE 10 10.00 Overcast OVC070 50 37.4 62% 46 29.99 0.0
05 21:55 N 9 10.00 Overcast BKN070 OVC075 50 37.4 62% 47 29.99 0.0
05 21:35 N 9 10.00 Overcast OVC070 50 39.2 67% 47 29.98 0.0
05 21:15 N 6 10.00 Overcast OVC070 51.8 37.4 58% 29.98 0.0
05 20:55 Calm 10.00 Overcast FEW004 FEW055 OVC070 51.8 35.6 54% 29.97 0.0
05 20:35 Vrbl 6 G 15 10.00 Light Rain FEW004 SCT055 OVC070 50 39.2 67% 48 29.96 0.0
05 20:15 E 9 G 15 10.00 Light Rain FEW034 SCT044 BKN055 51.8 39.2 62% 29.95 0.0
05 19:55 W 3 G 21 6.00 Light Rain Haze SCT035 BKN060 OVC070 51.8 32 47% 29.95 0.0
05 19:35 NW 17 G 23 10.00 Overcast BKN065 OVC075 55.4 32 41% 29.93 0.0
05 19:15 Vrbl 3 10.00 Overcast FEW060 OVC075 57.2 30.2 36% 29.92 0.0
05 18:55 S 8 10.00 Overcast OVC075 55.4 30.2 38% 29.91 0.0
05 18:35 NE 8 10.00 Overcast BKN075 OVC090 55.4 32 41% 29.9 0.0
Date Time (mst) Wind (mph) Vis. (mi.) Weather Sky Cond. Air Dwpt Max. Min. Relative Humidity Wind Chill (°F) Heat Index (°F) altimeter (in) sea level (mb) 1 hr 3 hr 6 hr
6 hour
Temperature (ºF) Pressure Precipitation (in)